Tuesday, September 18, 2018, 11:35 PM EDT
Back to Local

KPQI, Presque Isle

Location: Presque Isle, ME, United States Lat: 46.683
Local Time: 11:35 PM EDT ( 3:35 GMT) Lon: -68.05
Time Zone: US/Eastern Elev: 534 ft

Show me the last for .
Show Decoded

2018-09-18 22:56 METAR KPQI 190256Z AUTO 04010KT 10SM OVC017 09/08 A2995 RMK AO2 SLP186 60001
                 T00940078 52013 =
2018-09-18 21:56 METAR KPQI 190156Z AUTO 04010KT 10SM OVC015 10/08 A2994 RMK AO2 RAE25 SLP179
                 P0000 T01000083 =
2018-09-18 21:20 METAR KPQI 190120Z AUTO 02006KT 7SM -RA BKN010 OVC016 10/09 A2994 RMK AO2 P0000
                 =
2018-09-18 21:13 METAR KPQI 190113Z AUTO 01007KT 7SM -RA BKN009 OVC015 10/09 A2994 RMK AO2 CIG
                 008V013 P0000 =
2018-09-18 20:56 METAR KPQI 190056Z AUTO 04008KT 10SM -RA OVC012 10/09 A2992 RMK AO2 RAB2359
                 SLP175 P0001 T01000089 =
2018-09-18 20:25 METAR KPQI 190025Z AUTO 02007KT 10SM -RA OVC014 10/09 A2993 RMK AO2 RAB2359
                 P0001 =
2018-09-18 19:56 METAR KPQI 182356Z AUTO 03008KT 10SM OVC016 11/09 A2991 RMK AO2 RAE41 SLP171
                 P0000 60030 T01060089 10139 20100 51021 =
2018-09-18 18:56 METAR KPQI 182256Z AUTO 03007KT 10SM -RA OVC017 11/09 A2990 RMK AO2 SLP167 P0000
                 T01060089 =
2018-09-18 18:25 METAR KPQI 182225Z AUTO 06007KT 10SM -RA OVC015 11/09 A2988 RMK AO2 P0000 =
2018-09-18 17:56 METAR KPQI 182156Z AUTO 03006KT 10SM -RA OVC011 11/09 A2987 RMK AO2 SLP158 P0001
                 T01060094 =
2018-09-18 16:56 METAR KPQI 182056Z AUTO 05011KT 030V120 10SM -RA BKN011 BKN022 OVC029 12/10
                 A2985 RMK AO2 SLP148 P0004 60029 T01170100 53019 =
2018-09-18 16:48 METAR KPQI 182048Z AUTO 06014KT 7SM -RA SCT009 BKN014 OVC029 12/10 A2984 RMK AO2
                 P0004 =
2018-09-18 16:36 METAR KPQI 182036Z AUTO 07013KT 7SM RA SCT009 BKN021 OVC027 12/11 A2983 RMK AO2
                 P0004 =
2018-09-18 16:17 METAR KPQI 182017Z AUTO 06013G18KT 9SM -RA SCT011 OVC021 12/11 A2983 RMK AO2
                 P0002 =
2018-09-18 15:56 METAR KPQI 181956Z AUTO 05014G18KT 10SM -RA BKN010 OVC014 13/11 A2982 RMK AO2
                 CIG 007V012 SLP138 P0012 T01280111 =
2018-09-18 15:48 METAR KPQI 181948Z AUTO 04011KT 10SM RA BKN008 BKN014 OVC020 13/12 A2982 RMK AO2
                 CIG 007V010 P0012 =
2018-09-18 15:13 METAR KPQI 181913Z AUTO 05010KT 5SM RA BR SCT006 OVC010 13/13 A2981 RMK AO2
                 P0008 =
2018-09-18 14:56 METAR KPQI 181856Z AUTO 36010KT 5SM RA BR BKN008 OVC014 13/13 A2981 RMK AO2 CIG
                 007V012 SLP133 P0013 T01330128 =
2018-09-18 14:34 METAR KPQI 181834Z AUTO 36011KT 6SM RA BR BKN008 BKN014 OVC021 13/13 A2980 RMK
                 AO2 CIG 005V011 P0007 =
2018-09-18 14:24 METAR KPQI 181824Z AUTO 36011KT 5SM RA BR SCT008 BKN012 OVC029 13/13 A2979 RMK
                 AO2 P0005 =
2018-09-18 14:15 METAR KPQI 181815Z AUTO 36008KT 6SM RA BR SCT008 BKN027 OVC039 13/13 A2980 RMK
                 AO2 P0003 =
2018-09-18 14:06 METAR KPQI 181806Z AUTO 35009KT 7SM RA FEW008 BKN031 OVC039 13/13 A2979 RMK AO2
                 P0003 =
2018-09-18 13:55 METAR KPQI 181755Z AUTO 34008KT 6SM RA BR SCT008 BKN019 OVC038 13/12 A2979 RMK
                 AO2 SLP128 P0029 60033 T01330122 10211 20128 50003 =
2018-09-18 13:54 METAR KPQI 181754Z AUTO 34009KT 6SM RA BR SCT008 BKN019 OVC031 13/12 A2979 RMK
                 AO2 P0029 =
2018-09-18 12:56 METAR KPQI 181656Z AUTO 34008KT 6SM -RA BR BKN008 OVC027 13/12 A2980 RMK AO2 CIG
                 005V011 SLP129 P0004 T01330122 =
2018-09-18 12:39 METAR KPQI 181639Z AUTO 34012KT 7SM -RA BKN008 OVC025 14/13 A2979 RMK AO2 CIG
                 005V011 P0004 =
2018-09-18 12:27 METAR KPQI 181627Z AUTO 34013KT 6SM RA BR SCT006 BKN010 OVC018 14/13 A2979 RMK
                 AO2 P0004 =
2018-09-18 12:20 METAR KPQI 181620Z AUTO 35009KT 5SM -RA BR BKN010 OVC018 14/13 A2979 RMK AO2 CIG
                 006V011 P0001 =
2018-09-18 12:08 METAR KPQI 181608Z AUTO 33010KT 2SM -RA BR FEW006 BKN010 OVC018 14/13 A2980 RMK
                 AO2 P0000 =
2018-09-18 11:56 METAR KPQI 181556Z AUTO 34008KT 1 1/2SM -RA BR OVC008 14/13 A2980 RMK AO2 RAB44
                 CIG 006V011 SLP130 P0000 T01440133 =
2018-09-18 11:54 METAR KPQI 181554Z AUTO 35011KT 1 3/4SM -RA BR OVC008 14/13 A2980 RMK AO2 RAB44
                 CIG 006V010 P0000 =
2018-09-18 11:09 METAR KPQI 181509Z AUTO 35008KT 10SM BKN008 OVC014 16/14 A2979 RMK AO2 =
2018-09-18 10:56 METAR KPQI 181456Z AUTO 36010KT 10SM SCT008 OVC014 16/14 A2978 RMK AO2 SLP123
                 T01560139 53016 =
2018-09-18 10:28 METAR KPQI 181428Z AUTO 35015KT 9SM BKN008 BKN014 OVC021 16/14 A2977 RMK AO2 CIG
                 007V011 =
2018-09-18 10:20 METAR KPQI 181420Z AUTO 35014G20KT 10SM SCT008 BKN014 OVC021 17/15 A2977 RMK AO2
                 =
2018-09-18 09:56 METAR KPQI 181356Z AUTO 30003KT 10SM OVC023 21/18 A2974 RMK AO2 SLP106 T02060178
                 =
2018-09-18 08:56 METAR KPQI 181256Z AUTO 21004KT 10SM BKN025 OVC110 20/17 A2974 RMK AO2 SLP105
                 T02000167 =
2018-09-18 08:52 METAR KPQI 181252Z AUTO 20004KT 10SM BKN025 OVC110 20/17 A2974 RMK AO2 =
2018-09-18 07:56 METAR KPQI 181156Z AUTO 00000KT 10SM FEW120 18/17 A2973 RMK AO2 SLP103 T01830167
                 10211 20161 58000 =
2018-09-18 06:56 METAR KPQI 181056Z AUTO 00000KT 10SM OVC110 17/15 A2973 RMK AO2 SLP103 T01720150
                 =
2018-09-18 05:56 METAR KPQI 180956Z AUTO 25003KT 10SM BKN110 17/15 A2973 RMK AO2 SLP103 T01670150
                 =
2018-09-18 04:56 METAR KPQI 180856Z AUTO 23004KT 10SM CLR 19/16 A2973 RMK AO2 SLP100 T01890156
                 56004 =
2018-09-18 03:56 METAR KPQI 180756Z AUTO 24005KT 10SM CLR 20/16 A2973 RMK AO2 SLP100 T02000156 =
2018-09-18 02:56 METAR KPQI 180656Z AUTO 25006KT 10SM CLR 21/16 A2973 RMK AO2 SLP099 T02060156 =
2018-09-18 01:56 METAR KPQI 180556Z AUTO 26006KT 10SM CLR 21/16 A2974 RMK AO2 SLP103 T02110161
                 10233 20189 56013 =
2018-09-18 00:56 METAR KPQI 180456Z AUTO 20006KT 10SM CLR 19/17 A2975 RMK AO2 SLP108 T01940172
                 403060117 =
2018-09-17 23:56 METAR KPQI 180356Z AUTO 19005KT 10SM CLR 19/17 A2977 RMK AO2 SLP113 T01940172
                 TSNO =

Support USWX by starting your Amazon purchase here.